createdAt,value
2022-12-08T00:01:14.951Z,4.65
2022-12-08T00:03:42.317Z,5.25
2022-12-08T00:06:53.534Z,3.08
2022-12-08T00:09:30.928Z,2.13
2022-12-08T00:12:08.689Z,3.03
2022-12-08T00:14:40.854Z,3.53
2022-12-08T00:17:10.156Z,3.28
2022-12-08T00:19:39.001Z,4.25
2022-12-08T00:22:06.929Z,3.05
2022-12-08T00:24:35.715Z,1.48
2022-12-08T00:27:02.689Z,1.90
2022-12-08T00:29:29.155Z,0.65
2022-12-08T00:31:55.933Z,0.45
2022-12-08T00:34:22.673Z,3.47
2022-12-08T00:36:49.039Z,2.08
2022-12-08T00:39:17.241Z,2.90
2022-12-08T00:42:02.521Z,2.55
2022-12-08T00:44:28.927Z,2.20
2022-12-08T00:46:55.840Z,1.27
2022-12-08T00:49:22.699Z,2.33
2022-12-08T00:51:49.448Z,1.45
2022-12-08T00:54:16.122Z,0.80
2022-12-08T00:56:42.546Z,3.40
2022-12-08T00:59:09.048Z,3.25
2022-12-08T01:01:36.069Z,5.00
2022-12-08T01:04:10.654Z,3.03
2022-12-08T01:06:38.402Z,1.23
2022-12-08T01:09:06.599Z,3.75
2022-12-08T01:11:33.504Z,3.45
2022-12-08T01:13:59.917Z,2.22
2022-12-08T01:16:29.172Z,2.13
2022-12-08T01:18:57.610Z,2.63
2022-12-08T01:21:24.376Z,1.27
2022-12-08T01:23:51.024Z,8.05
2022-12-08T01:26:18.967Z,1.90
2022-12-08T01:28:46.513Z,2.60
2022-12-08T01:31:15.964Z,2.08
2022-12-08T01:33:42.844Z,0.75
2022-12-08T01:36:22.045Z,0.57
2022-12-08T01:38:49.077Z,0.63
2022-12-08T01:41:17.866Z,0.00
2022-12-08T01:43:50.213Z,0.52
2022-12-08T01:46:16.639Z,1.45
2022-12-08T01:48:43.358Z,1.02
2022-12-08T01:51:10.289Z,1.35
2022-12-08T01:53:36.834Z,2.03
2022-12-08T01:56:09.392Z,1.60
2022-12-08T01:58:39.802Z,3.10
2022-12-08T02:01:07.665Z,0.20
2022-12-08T02:03:49.863Z,4.35
2022-12-08T02:06:18.514Z,1.35
2022-12-08T02:08:45.960Z,4.30
2022-12-08T02:11:13.116Z,1.83
2022-12-08T02:13:41.724Z,2.30
2022-12-08T02:16:44.979Z,2.95
2022-12-08T02:19:40.863Z,3.65
2022-12-08T02:22:07.182Z,2.85
2022-12-08T02:25:03.504Z,4.57
2022-12-08T02:28:12.980Z,0.93
2022-12-08T02:31:23.884Z,7.78
2022-12-08T02:34:00.771Z,4.13
2022-12-08T02:36:38.120Z,1.70
2022-12-08T02:39:28.097Z,1.42
2022-12-08T02:42:06.066Z,3.15
2022-12-08T02:44:39.603Z,0.88
2022-12-08T02:47:12.829Z,4.32
2022-12-08T02:49:39.395Z,2.55
2022-12-08T02:52:29.304Z,2.40
2022-12-08T02:55:00.534Z,3.00
2022-12-08T02:57:45.617Z,2.53
2022-12-08T03:00:19.937Z,6.78
2022-12-08T03:03:14.164Z,4.03
2022-12-08T03:06:06.620Z,2.50
2022-12-08T03:08:32.934Z,0.60
2022-12-08T03:11:11.510Z,9.60
2022-12-08T03:13:46.199Z,1.40
2022-12-08T03:18:45.573Z,7.07
2022-12-08T03:21:15.250Z,4.65
2022-12-08T03:23:44.560Z,4.68
2022-12-08T03:26:30.651Z,1.80
2022-12-08T03:28:57.932Z,6.13
2022-12-08T03:31:28.956Z,0.75
2022-12-08T03:33:58.445Z,5.20
2022-12-08T03:36:25.923Z,1.50
2022-12-08T03:38:54.173Z,2.58
2022-12-08T03:41:22.596Z,1.23
2022-12-08T03:43:52.544Z,1.25
2022-12-08T03:48:46.568Z,0.95
2022-12-08T03:51:13.182Z,0.40
2022-12-08T03:53:39.695Z,3.22
2022-12-08T03:56:15.765Z,1.02
2022-12-08T03:58:43.070Z,0.10
2022-12-08T04:01:09.532Z,3.20
2022-12-08T04:03:35.877Z,0.75
2022-12-08T04:06:02.278Z,1.85
2022-12-08T04:08:28.719Z,3.28
2022-12-08T04:10:55.229Z,3.10
2022-12-08T04:13:21.617Z,2.58
2022-12-08T04:15:48.855Z,1.67
2022-12-08T04:18:15.993Z,2.35
2022-12-08T04:20:43.981Z,1.20
2022-12-08T04:23:12.527Z,0.90
2022-12-08T04:25:39.500Z,1.02
2022-12-08T04:28:06.136Z,2.03
2022-12-08T04:30:32.772Z,2.38
2022-12-08T04:32:59.263Z,2.05
2022-12-08T04:35:25.713Z,2.25
2022-12-08T04:37:52.174Z,0.70
2022-12-08T04:40:18.856Z,1.40
2022-12-08T04:42:45.274Z,0.85
2022-12-08T04:45:11.980Z,1.65
2022-12-08T04:47:38.476Z,2.85
2022-12-08T04:50:06.684Z,3.15
2022-12-08T04:52:33.204Z,1.20
2022-12-08T04:54:59.655Z,2.05
2022-12-08T04:57:26.205Z,0.45
2022-12-08T04:59:52.891Z,1.05
2022-12-08T05:02:19.656Z,0.68
2022-12-08T05:04:46.292Z,1.30
2022-12-08T05:07:12.724Z,2.17
2022-12-08T05:09:39.139Z,1.55
2022-12-08T05:12:05.964Z,0.88
2022-12-08T05:14:32.468Z,0.88
2022-12-08T05:16:58.836Z,1.92
2022-12-08T05:19:25.547Z,0.75
2022-12-08T05:21:51.928Z,0.30
2022-12-08T05:24:18.379Z,3.65
2022-12-08T05:26:44.763Z,2.53
2022-12-08T05:29:11.107Z,3.40
2022-12-08T05:31:37.526Z,1.15
2022-12-08T05:34:03.940Z,2.95
2022-12-08T05:36:30.434Z,5.43
2022-12-08T05:38:57.799Z,3.03
2022-12-08T05:41:24.846Z,4.22
2022-12-08T05:43:51.268Z,2.58
2022-12-08T05:46:18.064Z,1.80
2022-12-08T05:48:44.564Z,1.98
2022-12-08T05:51:20.412Z,0.90
2022-12-08T05:53:48.048Z,2.75
2022-12-08T05:56:15.210Z,2.47
2022-12-08T05:58:41.640Z,1.58
2022-12-08T06:01:08.194Z,2.90
2022-12-08T06:03:34.620Z,0.52
2022-12-08T06:06:01.321Z,1.65
2022-12-08T06:08:27.922Z,0.63
2022-12-08T06:10:54.388Z,9.68
2022-12-08T06:13:20.840Z,1.33
2022-12-08T06:15:47.261Z,1.08
2022-12-08T06:18:13.651Z,0.35
2022-12-08T06:20:40.048Z,1.58
2022-12-08T06:23:06.582Z,0.30
2022-12-08T06:25:32.963Z,1.02
2022-12-08T06:27:59.404Z,1.25
2022-12-08T06:30:28.420Z,0.73
2022-12-08T06:32:54.871Z,2.45
2022-12-08T06:35:21.289Z,0.93
2022-12-08T06:37:47.743Z,2.22
2022-12-08T06:40:14.415Z,2.45
2022-12-08T06:42:49.617Z,2.97
2022-12-08T06:45:17.870Z,1.45
2022-12-08T06:47:44.493Z,1.75
2022-12-08T06:50:11.901Z,1.67
2022-12-08T06:52:47.221Z,1.45
2022-12-08T06:55:29.243Z,2.50
2022-12-08T06:58:00.274Z,1.25
2022-12-08T07:00:26.684Z,3.75
2022-12-08T07:02:53.095Z,2.58
2022-12-08T07:05:19.611Z,2.70
2022-12-08T07:07:46.094Z,1.80
2022-12-08T07:10:12.480Z,5.18
2022-12-08T07:12:38.837Z,1.63
2022-12-08T07:15:05.793Z,3.53
2022-12-08T07:17:32.184Z,1.27
2022-12-08T07:19:58.551Z,3.50
2022-12-08T07:22:24.987Z,5.10
2022-12-08T07:24:51.395Z,4.38
2022-12-08T07:27:17.822Z,4.32
2022-12-08T07:29:44.228Z,1.73
2022-12-08T07:32:10.677Z,5.88
2022-12-08T07:34:37.033Z,2.63
2022-12-08T07:37:03.500Z,4.03
2022-12-08T07:39:29.972Z,2.38
2022-12-08T07:41:56.354Z,2.75
2022-12-08T07:44:22.824Z,2.53
2022-12-08T07:46:49.251Z,3.13
2022-12-08T07:49:15.622Z,2.40
2022-12-08T07:51:42.065Z,4.50
2022-12-08T07:54:12.392Z,3.97
2022-12-08T07:56:38.845Z,1.65
2022-12-08T07:59:05.259Z,4.55
2022-12-08T08:01:33.954Z,3.97
2022-12-08T08:04:04.213Z,4.63
2022-12-08T08:06:32.032Z,5.70
2022-12-08T08:08:58.483Z,3.05
2022-12-08T08:11:25.007Z,3.15
2022-12-08T08:13:51.923Z,3.03
2022-12-08T08:16:19.597Z,6.82
2022-12-08T08:18:50.754Z,4.03
2022-12-08T08:24:05.668Z,8.63
2022-12-08T08:26:32.066Z,4.50
2022-12-08T08:28:58.414Z,3.55
2022-12-08T08:31:25.907Z,6.05
2022-12-08T08:33:53.011Z,5.82
2022-12-08T08:36:19.453Z,7.78
2022-12-08T08:38:45.851Z,3.72
2022-12-08T08:41:12.243Z,9.80
2022-12-08T08:43:39.041Z,29.20
2022-12-08T08:46:06.407Z,21.63
2022-12-08T08:48:33.030Z,19.55
2022-12-08T08:51:06.391Z,12.90
2022-12-08T08:53:32.846Z,8.23
2022-12-08T08:56:01.570Z,8.80
2022-12-08T08:58:29.104Z,6.38
2022-12-08T09:00:55.427Z,11.63
2022-12-08T09:03:21.832Z,6.28
2022-12-08T09:05:48.399Z,7.45
2022-12-08T09:08:14.942Z,7.70
2022-12-08T09:10:41.922Z,8.20
2022-12-08T09:13:08.603Z,6.40
2022-12-08T09:15:35.049Z,4.57
2022-12-08T09:18:01.496Z,12.05
2022-12-08T09:20:27.933Z,6.32
2022-12-08T09:22:54.372Z,10.32
2022-12-08T09:25:20.747Z,8.23
2022-12-08T09:27:47.097Z,6.07
2022-12-08T09:30:13.704Z,5.68
2022-12-08T09:32:40.490Z,8.48
2022-12-08T09:35:07.382Z,4.18
2022-12-08T09:37:33.814Z,3.80
2022-12-08T09:40:00.292Z,6.20
2022-12-08T09:42:47.513Z,2.30
2022-12-08T09:45:16.955Z,3.50
2022-12-08T09:48:14.993Z,4.88
2022-12-08T09:50:49.713Z,4.70
2022-12-08T09:53:21.454Z,3.65
2022-12-08T09:55:55.768Z,2.33
2022-12-08T09:58:35.332Z,3.78
2022-12-08T10:01:02.082Z,1.80
2022-12-08T10:03:30.551Z,5.55
2022-12-08T10:06:20.020Z,3.83
2022-12-08T10:09:02.479Z,3.00
2022-12-08T10:11:50.080Z,1.05
2022-12-08T10:14:22.755Z,7.68
2022-12-08T10:16:52.298Z,1.67
2022-12-08T10:19:22.455Z,3.85
2022-12-08T10:21:49.511Z,4.40
2022-12-08T10:24:26.606Z,2.72
2022-12-08T10:26:54.285Z,6.35
2022-12-08T10:29:20.760Z,2.88
2022-12-08T10:31:47.318Z,2.75
2022-12-08T10:34:17.573Z,1.30
2022-12-08T10:36:53.217Z,7.65
2022-12-08T10:39:36.794Z,5.32
2022-12-08T10:42:15.520Z,5.90
2022-12-08T10:45:09.284Z,1.17
2022-12-08T10:47:42.494Z,2.13
2022-12-08T10:50:20.225Z,4.30
2022-12-08T10:52:55.601Z,3.38
2022-12-08T10:55:22.201Z,3.15
2022-12-08T10:57:51.517Z,1.77
2022-12-08T11:00:21.526Z,2.53
2022-12-08T11:02:59.089Z,3.92
2022-12-08T11:05:33.432Z,5.60
2022-12-08T11:08:00.459Z,3.92
2022-12-08T11:10:43.199Z,3.35
2022-12-08T11:13:26.535Z,2.50
2022-12-08T11:15:55.330Z,3.67
2022-12-08T11:18:38.525Z,4.55
2022-12-08T11:21:15.754Z,5.30
2022-12-08T11:23:46.590Z,2.83
2022-12-08T11:26:24.414Z,1.40
2022-12-08T11:28:50.841Z,1.30
2022-12-08T11:31:34.685Z,2.42
2022-12-08T11:34:03.049Z,1.52
2022-12-08T11:36:33.396Z,1.42
2022-12-08T11:39:02.687Z,1.45
2022-12-08T11:41:36.588Z,2.88
2022-12-08T11:44:20.901Z,1.85
2022-12-08T11:46:56.561Z,3.05
2022-12-08T11:49:31.328Z,1.77
2022-12-08T11:52:05.770Z,4.10
2022-12-08T11:54:36.026Z,1.52
2022-12-08T11:57:05.873Z,0.88
2022-12-08T11:59:39.566Z,3.35
2022-12-08T12:02:13.509Z,5.03
2022-12-08T12:05:06.335Z,1.00
2022-12-08T12:08:10.387Z,2.03
2022-12-08T12:10:45.413Z,1.52
2022-12-08T12:13:17.904Z,1.75
2022-12-08T12:16:07.759Z,2.90
2022-12-08T12:18:46.315Z,3.35
2022-12-08T12:21:18.381Z,3.83
2022-12-08T12:24:07.648Z,7.38
2022-12-08T12:26:38.097Z,2.20
2022-12-08T12:29:16.032Z,3.38
2022-12-08T12:31:51.304Z,0.82
2022-12-08T12:34:22.505Z,2.33
2022-12-08T12:37:06.325Z,1.98
2022-12-08T12:39:57.766Z,0.38
2022-12-08T12:42:41.259Z,2.40
2022-12-08T12:45:16.549Z,1.13
2022-12-08T12:47:56.288Z,2.50
2022-12-08T12:51:00.428Z,2.28
2022-12-08T12:53:26.831Z,1.17
2022-12-08T12:55:54.959Z,3.47
2022-12-08T12:58:30.265Z,2.35
2022-12-08T13:01:12.511Z,3.75
2022-12-08T13:04:08.559Z,1.02
2022-12-08T13:06:48.783Z,1.23
2022-12-08T13:09:35.030Z,1.55
2022-12-08T13:12:10.501Z,2.72
2022-12-08T13:14:46.853Z,1.05
2022-12-08T13:17:17.610Z,1.20
2022-12-08T13:19:51.671Z,0.50
2022-12-08T13:23:09.702Z,0.70
2022-12-08T13:25:38.808Z,0.32
2022-12-08T13:28:25.932Z,1.33
2022-12-08T13:30:56.130Z,0.70
2022-12-08T13:33:26.882Z,1.23
2022-12-08T13:36:17.150Z,0.93
2022-12-08T13:38:46.712Z,1.80
2022-12-08T13:41:18.798Z,1.27
2022-12-08T13:44:24.862Z,6.57
2022-12-08T13:47:31.743Z,1.30
2022-12-08T13:58:37.008Z,0.95
2022-12-08T14:01:18.296Z,2.75
2022-12-08T14:04:33.807Z,2.90
2022-12-08T14:06:49.847Z,2.88
2022-12-08T14:09:20.811Z,1.85
2022-12-08T14:12:03.401Z,1.17
2022-12-08T14:17:28.971Z,4.10
2022-12-08T14:20:06.433Z,3.00
2022-12-08T14:22:35.214Z,1.85
2022-12-08T14:25:01.960Z,2.28
2022-12-08T14:27:33.795Z,4.75
2022-12-08T14:30:02.282Z,3.28
2022-12-08T14:32:28.845Z,4.32
2022-12-08T14:34:56.647Z,10.65
2022-12-08T14:37:25.848Z,7.40
2022-12-08T14:39:53.728Z,7.20
2022-12-08T14:42:25.187Z,7.00
2022-12-08T14:45:01.075Z,3.75
2022-12-08T14:47:32.300Z,5.40
2022-12-08T14:49:58.835Z,8.32
2022-12-08T14:52:26.521Z,6.35
2022-12-08T14:54:54.397Z,3.90
2022-12-08T14:57:21.186Z,4.60
2022-12-08T14:59:48.693Z,4.90
2022-12-08T15:02:25.152Z,3.92
2022-12-08T15:05:02.956Z,4.32
2022-12-08T15:07:34.347Z,3.42
2022-12-08T15:10:21.182Z,4.20
2022-12-08T15:12:58.271Z,4.38
2022-12-08T15:15:25.303Z,3.90
2022-12-08T15:18:00.676Z,3.67
2022-12-08T15:20:44.092Z,2.97
2022-12-08T15:23:24.360Z,4.60
2022-12-08T15:25:51.099Z,5.25
2022-12-08T15:28:21.272Z,5.75
2022-12-08T15:30:49.881Z,6.47
2022-12-08T15:33:16.462Z,6.05
2022-12-08T15:35:43.772Z,4.95
2022-12-08T15:38:24.795Z,6.32
2022-12-08T15:40:52.253Z,6.03
2022-12-08T15:43:21.143Z,5.97
2022-12-08T15:45:58.612Z,8.82
2022-12-08T15:48:27.505Z,8.25
2022-12-08T15:50:54.514Z,7.32
2022-12-08T15:53:21.029Z,7.47
2022-12-08T15:56:10.779Z,9.95
2022-12-08T16:01:22.407Z,9.75
2022-12-08T16:09:30.257Z,11.13
2022-12-08T16:12:15.490Z,11.18
2022-12-08T16:17:31.065Z,11.27
2022-12-08T16:19:57.829Z,11.20
2022-12-08T16:22:52.860Z,11.18
2022-12-08T16:25:19.299Z,11.77
2022-12-08T16:28:23.178Z,11.60
2022-12-08T16:30:35.455Z,11.90
2022-12-08T16:33:01.953Z,14.00
2022-12-08T16:35:28.678Z,11.13
2022-12-08T16:37:55.146Z,12.27
2022-12-08T16:40:21.651Z,9.88
2022-12-08T16:42:49.966Z,11.88
2022-12-08T16:45:27.876Z,10.85
2022-12-08T16:47:59.706Z,12.45
2022-12-08T16:50:30.307Z,11.50
2022-12-08T16:53:02.547Z,11.63
2022-12-08T16:55:29.005Z,13.55
2022-12-08T16:57:56.042Z,14.45
2022-12-08T17:00:25.114Z,11.95
2022-12-08T17:02:52.447Z,14.52
2022-12-08T17:05:21.060Z,10.50
2022-12-08T17:07:49.441Z,14.00
2022-12-08T17:10:19.293Z,12.55
2022-12-08T17:12:46.503Z,11.95
2022-12-08T17:15:16.486Z,16.95
2022-12-08T17:17:43.044Z,11.93
2022-12-08T17:20:13.534Z,14.70
2022-12-08T17:22:39.939Z,12.60
2022-12-08T17:25:07.190Z,11.68
2022-12-08T17:27:33.621Z,12.65
2022-12-08T17:30:00.058Z,12.75
2022-12-08T17:32:26.922Z,13.00
2022-12-08T17:34:53.805Z,19.45
2022-12-08T17:37:20.278Z,18.77
2022-12-08T17:39:46.660Z,20.05
2022-12-08T17:42:13.143Z,17.05
2022-12-08T17:44:39.633Z,16.30
2022-12-08T17:47:06.062Z,19.67
2022-12-08T17:49:35.546Z,20.58
2022-12-08T17:52:05.303Z,18.35
2022-12-08T17:54:31.752Z,16.42
2022-12-08T17:56:59.076Z,16.50
2022-12-08T17:59:27.337Z,18.33
2022-12-08T18:01:55.431Z,16.58
2022-12-08T18:04:22.220Z,16.05
2022-12-08T18:06:48.697Z,16.05
2022-12-08T18:09:15.475Z,16.40
2022-12-08T18:11:42.733Z,19.55
2022-12-08T18:14:10.839Z,17.98
2022-12-08T18:16:43.134Z,17.40
2022-12-08T18:19:12.151Z,19.27
2022-12-08T18:21:38.874Z,19.52
2022-12-08T18:24:05.941Z,19.23
2022-12-08T18:26:32.775Z,17.05
2022-12-08T18:28:59.952Z,19.02
2022-12-08T18:31:26.917Z,17.45
2022-12-08T18:33:53.699Z,16.27
2022-12-08T18:36:23.634Z,16.15
2022-12-08T18:38:50.896Z,15.63
2022-12-08T18:41:20.711Z,19.10
2022-12-08T18:43:47.206Z,21.00
2022-12-08T18:46:16.039Z,19.92
2022-12-08T18:48:46.138Z,22.10
2022-12-08T18:51:18.142Z,19.75
2022-12-08T18:53:45.132Z,26.55
2022-12-08T18:56:22.506Z,23.35
2022-12-08T18:58:49.172Z,23.40
2022-12-08T19:01:15.848Z,27.45
2022-12-08T19:03:48.911Z,30.80
2022-12-08T19:06:24.858Z,23.45
2022-12-08T19:08:51.336Z,27.50
2022-12-08T19:11:25.754Z,35.55
2022-12-08T19:13:53.555Z,33.65
2022-12-08T19:16:20.376Z,38.58
2022-12-08T19:18:46.834Z,41.55
2022-12-08T19:21:13.527Z,24.98
2022-12-08T19:23:40.766Z,36.72
2022-12-08T19:26:07.942Z,29.40
2022-12-08T19:28:35.315Z,29.02
2022-12-08T19:31:10.020Z,25.73
2022-12-08T19:33:37.643Z,27.88
2022-12-08T19:36:10.535Z,22.70
2022-12-08T19:38:56.963Z,32.53
2022-12-08T19:41:42.190Z,25.25
2022-12-08T19:44:39.919Z,24.45
2022-12-08T19:47:06.557Z,42.60
2022-12-08T19:49:33.145Z,17.63
2022-12-08T19:52:00.095Z,12.90
2022-12-08T19:54:26.879Z,22.50
2022-12-08T19:56:53.428Z,23.73
2022-12-08T19:59:20.356Z,26.90
2022-12-08T20:01:48.323Z,37.10
2022-12-08T20:04:15.726Z,45.45
2022-12-08T20:06:42.775Z,36.50
2022-12-08T20:09:10.313Z,30.10
2022-12-08T20:11:37.586Z,19.25
2022-12-08T20:14:04.282Z,25.60
2022-12-08T20:16:30.916Z,24.35
2022-12-08T20:18:57.751Z,20.65
2022-12-08T20:21:24.172Z,19.30
2022-12-08T20:23:50.616Z,19.13
2022-12-08T20:26:19.575Z,28.08
2022-12-08T20:28:46.019Z,36.40
2022-12-08T20:31:18.530Z,29.95
2022-12-08T20:33:45.098Z,27.70
2022-12-08T20:36:15.942Z,24.85
2022-12-08T20:38:42.411Z,26.98
2022-12-08T20:41:09.842Z,20.02
2022-12-08T20:43:36.370Z,30.70
2022-12-08T20:46:11.478Z,26.52
2022-12-08T20:48:38.345Z,34.57
2022-12-08T20:51:05.125Z,34.65
2022-12-08T20:53:31.711Z,37.10
2022-12-08T20:55:58.339Z,41.37
2022-12-08T20:58:24.730Z,29.80
2022-12-08T21:00:51.222Z,37.20
2022-12-08T21:03:18.769Z,46.30
2022-12-08T21:05:50.415Z,27.50
2022-12-08T21:08:17.827Z,24.98
2022-12-08T21:10:44.513Z,46.67
2022-12-08T21:13:11.105Z,30.58
2022-12-08T21:15:37.882Z,42.83
2022-12-08T21:18:04.785Z,24.97
2022-12-08T21:20:31.291Z,26.60
2022-12-08T21:22:57.693Z,36.67
2022-12-08T21:25:24.333Z,38.73
2022-12-08T21:27:50.814Z,44.20
2022-12-08T21:30:17.512Z,53.60
2022-12-08T21:32:44.137Z,32.25
2022-12-08T21:35:10.845Z,40.17
2022-12-08T21:37:37.429Z,37.10
2022-12-08T21:40:05.344Z,54.20
2022-12-08T21:42:43.909Z,53.35
2022-12-08T21:45:19.089Z,63.72
2022-12-08T21:47:47.614Z,75.22
2022-12-08T21:50:15.383Z,76.53
2022-12-08T21:52:44.369Z,78.00
2022-12-08T21:55:12.551Z,58.60
2022-12-08T21:57:39.603Z,117.38
2022-12-08T22:00:08.575Z,64.22
2022-12-08T22:02:35.326Z,98.15
2022-12-08T22:05:02.163Z,39.15
2022-12-08T22:07:28.727Z,39.03
2022-12-08T22:09:55.598Z,105.43
2022-12-08T22:12:22.330Z,69.57
2022-12-08T22:14:50.656Z,66.35
2022-12-08T22:17:17.490Z,53.75
2022-12-08T22:19:44.058Z,51.13
2022-12-08T22:22:10.599Z,61.25
2022-12-08T22:24:37.065Z,47.80
2022-12-08T22:27:03.978Z,52.90
2022-12-08T22:29:30.417Z,54.25
2022-12-08T22:31:56.806Z,46.72
2022-12-08T22:34:23.408Z,68.32
2022-12-08T22:36:49.771Z,59.08
2022-12-08T22:39:16.185Z,50.78
2022-12-08T22:41:42.663Z,39.22
2022-12-08T22:44:09.558Z,40.55
2022-12-08T22:46:36.080Z,38.45
2022-12-08T22:49:02.656Z,45.08
2022-12-08T22:51:29.004Z,61.35
2022-12-08T22:53:55.486Z,58.55
2022-12-08T22:56:21.960Z,47.70
2022-12-08T22:58:48.431Z,63.92
2022-12-08T23:01:27.806Z,43.85
2022-12-08T23:03:54.408Z,45.80
2022-12-08T23:06:21.103Z,63.15
2022-12-08T23:08:47.850Z,30.70
2022-12-08T23:11:14.615Z,42.78
2022-12-08T23:13:41.398Z,36.17
2022-12-08T23:16:08.928Z,30.27
2022-12-08T23:18:35.800Z,33.05
2022-12-08T23:21:07.345Z,32.55
2022-12-08T23:23:33.799Z,36.33
2022-12-08T23:26:00.320Z,36.08
2022-12-08T23:28:27.165Z,36.85
2022-12-08T23:30:53.980Z,40.63
2022-12-08T23:33:20.614Z,38.13
2022-12-08T23:35:56.588Z,38.53
2022-12-08T23:38:23.103Z,43.63
2022-12-08T23:40:49.525Z,36.70
2022-12-08T23:43:15.933Z,39.37
2022-12-08T23:45:42.414Z,37.90
2022-12-08T23:48:08.974Z,40.90
2022-12-08T23:50:35.556Z,44.30
2022-12-08T23:53:01.994Z,39.30
2022-12-08T23:55:28.397Z,44.47
2022-12-08T23:57:54.888Z,37.03
